Terminal Aerodrome Forecast
Issued by NWS

Home | Current Version | Previous Version | Text Only | Print | Product List | Glossary On
Versions: 1 2 3 4 5 6 7 8 9 10 11 12 13 14 15 16 17 18 19 20 21 22 23 24 25 26 27 28 29 30 31 32 33 34 35 36 37 38 39 40
000
FTAK31 PANC 150320 AAB
TAFADL
TAF AMD
PADL 150320Z 1503/1524 10008G15KT 6SM -SHRA BKN035
     FM150600 06007KT P6SM -SHRA SCT025 BKN040
     FM151200 VRB06KT P6SM VCSH BKN025 OVC040=

USA.gov is the U.S. government's official web portal to all federal, state and local government web resources and services.